Indian Township, Maine
Current Conditions -  °F | °C
As of 2:53 AM on Monday 22 Dec 2014 (Local Time) from KMLT Reporting Station
Overcast Overcast  
Wind Chill: 26°   Ceiling: 400
Heat Index: 26°   Visibility: 10mi
Dew Point: 25°   Wind: 0mph
Humidity: 96%   Direction: NA
Pressure: 30.4"   Gusts: NA
Location:  45.1886°N, 67.7075°W
Report Text: KMLT 220753Z AUTO 00000KT 10SM OVC004 M03/M04 A3040 RMK AO2 SLP306 T10331039
Loading
Personal Weather Stations






























Interactive Weather Map New forecast layout! Learn more

10-Day Weather Forecast

Advertisements
Track Severe Weather on mobile